Time;durP1;ratioP1;P1;durP2;ratioP2;P2;SDS_P1;SDS_P2;PMS_P1;PMS_P2;Temp;Humidity;BMP_temperature;BMP_pressure;BME280_temperature;BME280_humidity;BME280_pressure;Samples;Min_cycle;Max_cycle;Signal;HPM_P1;HPM_P2
2021/07/04 00:01:02;;;;;;;1.10;1.00;;;23.80;57.50;;;;;;6315663;28;20038;-74
2021/07/04 00:04:04;;;;;;;1.50;1.10;;;23.80;57.60;;;;;;6315410;28;20054;-74
2021/07/04 00:07:05;;;;;;;1.08;0.80;;;23.80;57.60;;;;;;6317651;28;20296;-72
2021/07/04 00:10:06;;;;;;;1.70;1.00;;;23.80;57.60;;;;;;6315562;28;20031;-73
2021/07/04 00:13:07;;;;;;;1.05;0.90;;;23.80;57.60;;;;;;6316917;28;20558;-75
2021/07/04 00:16:08;;;;;;;1.20;1.00;;;23.80;57.60;;;;;;6315315;28;20027;-75
2021/07/04 00:19:08;;;;;;;1.00;0.90;;;23.80;57.60;;;;;;6315457;28;20648;-74
2021/07/04 00:22:09;;;;;;;1.00;0.90;;;23.80;57.60;;;;;;6316790;28;20024;-73
2021/07/04 00:25:12;;;;;;;1.23;0.93;;;23.80;57.60;;;;;;6316161;28;20024;-75
2021/07/04 00:28:13;;;;;;;0.70;0.70;;;23.80;57.60;;;;;;6315370;28;20489;-74
2021/07/04 00:31:14;;;;;;;1.50;0.80;;;23.80;57.60;;;;;;6315919;28;20137;-75
2021/07/04 00:34:14;;;;;;;1.00;0.88;;;23.80;57.60;;;;;;6316045;28;20028;-74
2021/07/04 00:37:15;;;;;;;0.73;0.73;;;23.80;57.60;;;;;;6316806;28;20100;-73
2021/07/04 00:40:17;;;;;;;1.00;0.75;;;23.80;57.60;;;;;;6314532;28;20566;-71
2021/07/04 00:43:17;;;;;;;0.75;0.70;;;23.80;57.60;;;;;;6314767;28;20105;-73
2021/07/04 00:46:18;;;;;;;1.10;1.00;;;23.80;57.60;;;;;;6315858;28;20129;-73
2021/07/04 00:49:18;;;;;;;0.82;0.82;;;23.80;57.60;;;;;;6314679;28;20027;-73
2021/07/04 00:52:20;;;;;;;1.00;0.90;;;23.80;57.60;;;;;;6314808;28;20503;-75
2021/07/04 00:55:21;;;;;;;1.40;0.80;;;23.80;57.60;;;;;;6314239;28;20082;-75
2021/07/04 00:58:22;;;;;;;0.85;0.80;;;23.80;57.60;;;;;;6314834;28;20039;-75
2021/07/04 01:01:23;;;;;;;0.95;0.85;;;23.80;57.60;;;;;;6314828;28;20032;-74
2021/07/04 01:04:24;;;;;;;0.88;0.80;;;23.80;57.60;;;;;;6314241;28;20051;-75
2021/07/04 01:07:25;;;;;;;1.15;0.98;;;23.80;57.60;;;;;;6313615;28;20092;-72
2021/07/04 01:10:27;;;;;;;1.00;0.90;;;23.80;57.60;;;;;;6314555;28;20355;-74
2021/07/04 01:13:28;;;;;;;1.15;0.90;;;23.80;57.60;;;;;;6316047;28;20283;-75
2021/07/04 01:16:29;;;;;;;1.25;1.02;;;23.80;57.60;;;;;;6314455;28;20101;-75
2021/07/04 01:19:30;;;;;;;1.08;0.90;;;23.80;57.60;;;;;;6315446;28;20445;-72
2021/07/04 01:22:33;;;;;;;1.05;0.80;;;23.80;57.60;;;;;;6315064;28;20036;-72
2021/07/04 01:25:37;;;;;;;0.82;0.82;;;23.80;57.60;;;;;;6313853;28;20066;-75
2021/07/04 01:28:37;;;;;;;0.73;0.73;;;23.80;57.60;;;;;;6313606;28;20082;-75
2021/07/04 01:31:38;;;;;;;0.95;0.75;;;23.80;57.60;;;;;;6314145;28;20666;-75
2021/07/04 01:34:38;;;;;;;1.00;0.70;;;23.80;57.60;;;;;;6313270;28;20084;-75
2021/07/04 01:37:39;;;;;;;1.08;0.85;;;23.80;57.60;;;;;;6314783;28;20028;-74
2021/07/04 01:40:40;;;;;;;0.98;0.88;;;23.80;57.60;;;;;;6313655;28;20081;-74
2021/07/04 01:43:40;;;;;;;0.80;0.73;;;23.80;57.60;;;;;;6315082;28;20089;-73
2021/07/04 01:46:41;;;;;;;0.70;0.68;;;23.80;57.60;;;;;;6314599;28;20035;-75
2021/07/04 01:49:41;;;;;;;0.88;0.73;;;23.80;57.60;;;;;;6313511;28;20024;-74
2021/07/04 01:52:42;;;;;;;0.70;0.70;;;23.80;57.60;;;;;;6312866;28;20036;-74
2021/07/04 01:55:43;;;;;;;0.85;0.85;;;23.80;57.60;;;;;;6314648;28;20836;-71
2021/07/04 01:58:44;;;;;;;1.40;0.95;;;23.80;57.60;;;;;;6314725;28;20028;-75
2021/07/04 02:01:44;;;;;;;1.15;0.90;;;23.80;57.60;;;;;;6312809;28;20413;-74
2021/07/04 02:04:45;;;;;;;0.88;0.77;;;23.80;57.70;;;;;;6312483;28;20020;-75
2021/07/04 02:07:46;;;;;;;0.60;0.60;;;23.80;57.60;;;;;;6312908;28;20032;-75
2021/07/04 02:10:46;;;;;;;0.88;0.85;;;23.80;57.60;;;;;;6312651;28;20511;-73
2021/07/04 02:13:47;;;;;;;1.25;0.90;;;23.80;57.60;;;;;;6314076;28;20107;-75
2021/07/04 02:16:47;;;;;;;0.70;0.70;;;23.80;57.60;;;;;;6313068;28;20427;-75
2021/07/04 02:19:48;;;;;;;0.80;0.77;;;23.80;57.60;;;;;;6312970;28;20409;-75
2021/07/04 02:22:49;;;;;;;0.73;0.70;;;23.80;57.60;;;;;;6312764;28;20545;-75
2021/07/04 02:25:51;;;;;;;1.00;0.80;;;23.80;57.60;;;;;;6314150;28;20043;-74
2021/07/04 02:28:51;;;;;;;1.20;1.00;;;23.80;57.60;;;;;;6314032;28;20082;-72
2021/07/04 02:31:52;;;;;;;0.70;0.70;;;23.80;57.60;;;;;;6314265;28;20501;-75
2021/07/04 02:34:52;;;;;;;0.93;0.85;;;23.80;57.60;;;;;;6312598;28;20040;-74
2021/07/04 02:37:53;;;;;;;0.70;0.70;;;23.80;57.60;;;;;;6313683;28;20023;-75
2021/07/04 02:40:55;;;;;;;0.70;0.70;;;23.80;57.60;;;;;;6313882;28;20028;-73
2021/07/04 02:43:55;;;;;;;0.90;0.70;;;23.80;57.60;;;;;;6312159;28;20031;-74
2021/07/04 02:46:56;;;;;;;1.17;0.90;;;23.80;57.60;;;;;;6312773;28;20016;-75
2021/07/04 02:49:57;;;;;;;1.23;0.88;;;23.80;57.60;;;;;;6313156;28;20391;-74
2021/07/04 02:52:58;;;;;;;0.80;0.75;;;23.80;57.60;;;;;;6313307;28;20044;-75
2021/07/04 02:55:58;;;;;;;1.00;0.90;;;23.80;57.60;;;;;;6313606;28;20067;-75
2021/07/04 02:58:59;;;;;;;0.80;0.80;;;23.80;57.60;;;;;;6313523;28;20038;-74
2021/07/04 03:01:59;;;;;;;0.90;0.80;;;23.80;57.60;;;;;;6312170;28;20020;-71
2021/07/04 03:05:00;;;;;;;0.80;0.77;;;23.80;57.60;;;;;;6313361;28;20232;-75
2021/07/04 03:08:01;;;;;;;0.88;0.65;;;23.80;57.60;;;;;;6313892;28;20020;-73
2021/07/04 03:11:01;;;;;;;0.60;0.60;;;23.80;57.60;;;;;;6312436;28;20032;-74
2021/07/04 03:14:02;;;;;;;0.65;0.65;;;23.80;57.70;;;;;;6313273;28;20961;-74
2021/07/04 03:17:03;;;;;;;0.75;0.70;;;23.80;57.60;;;;;;6312330;28;20594;-75
2021/07/04 03:20:06;;;;;;;0.77;0.77;;;23.80;57.60;;;;;;6312290;28;20024;-75
2021/07/04 03:23:07;;;;;;;0.80;0.70;;;23.80;57.60;;;;;;6314194;28;20027;-68
2021/07/04 03:26:07;;;;;;;0.85;0.80;;;23.80;57.60;;;;;;6313750;28;20024;-72
2021/07/04 03:29:08;;;;;;;0.95;0.80;;;23.80;57.70;;;;;;6313184;28;20036;-73
2021/07/04 03:32:09;;;;;;;1.48;0.68;;;23.80;57.60;;;;;;6316446;28;20039;-72
2021/07/04 03:35:11;;;;;;;0.68;0.68;;;23.80;57.60;;;;;;6318546;28;20170;-70
2021/07/04 03:38:12;;;;;;;1.08;0.77;;;23.80;57.60;;;;;;6319501;28;20405;-75
2021/07/04 03:41:12;;;;;;;0.73;0.70;;;23.80;57.70;;;;;;6319315;28;20035;-73
2021/07/04 03:44:13;;;;;;;1.55;1.00;;;23.80;57.90;;;;;;6317652;28;20063;-76
2021/07/04 03:47:13;;;;;;;0.60;0.60;;;23.80;57.70;;;;;;6317242;28;20115;-76
2021/07/04 03:50:14;;;;;;;0.93;0.80;;;23.80;57.60;;;;;;6316972;28;20027;-75
2021/07/04 03:53:14;;;;;;;0.98;0.88;;;23.80;57.70;;;;;;6316420;28;20493;-76
2021/07/04 03:56:15;;;;;;;0.70;0.70;;;23.80;57.70;;;;;;6317392;28;20032;-75
2021/07/04 04:03:13;;;;;;;1.10;0.70;;;23.80;57.70;;;;;;6317558;28;20036;-75
2021/07/04 04:06:13;;;;;;;1.05;0.77;;;23.80;57.70;;;;;;6316213;28;20031;-75
2021/07/04 04:09:14;;;;;;;1.38;0.95;;;23.80;57.70;;;;;;6316013;28;20074;-76
2021/07/04 04:12:15;;;;;;;0.85;0.77;;;23.80;57.70;;;;;;6317614;28;20464;-72
2021/07/04 04:15:15;;;;;;;0.82;0.80;;;23.80;57.70;;;;;;6316996;28;20030;-75
2021/07/04 04:18:18;;;;;;;0.90;0.70;;;23.80;57.70;;;;;;6317578;28;20050;-76
2021/07/04 04:21:18;;;;;;;0.60;0.60;;;23.80;57.70;;;;;;6343079;28;20579;-76
2021/07/04 04:24:19;;;;;;;0.60;0.60;;;23.80;57.70;;;;;;6332446;28;20055;-75
2021/07/04 04:27:19;;;;;;;0.70;0.60;;;23.80;57.70;;;;;;6315701;28;20107;-75
2021/07/04 04:30:21;;;;;;;1.00;0.80;;;23.80;57.70;;;;;;6316101;28;20028;-73
2021/07/04 04:33:22;;;;;;;0.60;0.60;;;23.80;57.70;;;;;;6315496;28;20107;-76
2021/07/04 04:36:22;;;;;;;0.70;0.70;;;23.80;57.70;;;;;;6315505;28;20453;-75
2021/07/04 04:39:23;;;;;;;0.75;0.60;;;23.80;57.70;;;;;;6317245;28;20111;-76
2021/07/04 04:42:23;;;;;;;1.00;0.82;;;23.80;57.70;;;;;;6314370;28;20115;-77
2021/07/04 04:45:24;;;;;;;0.95;0.73;;;23.80;57.70;;;;;;6317051;28;20104;-75
2021/07/04 04:48:24;;;;;;;0.60;0.60;;;23.80;57.70;;;;;;6316685;28;20408;-74
2021/07/04 04:51:25;;;;;;;0.65;0.57;;;23.80;57.70;;;;;;6315601;28;20016;-77
2021/07/04 04:54:26;;;;;;;0.93;0.80;;;23.80;57.70;;;;;;6314896;28;20466;-73
2021/07/04 04:57:26;;;;;;;0.50;0.50;;;23.80;57.70;;;;;;6317313;28;20052;-74
2021/07/04 05:00:27;;;;;;;1.58;0.90;;;23.80;57.70;;;;;;6315348;28;20024;-76
2021/07/04 05:03:28;;;;;;;0.63;0.63;;;23.80;57.70;;;;;;6306080;28;20064;-76
2021/07/04 05:06:28;;;;;;;0.98;0.88;;;23.80;57.70;;;;;;6312032;28;20035;-75
2021/07/04 05:09:29;;;;;;;0.90;0.77;;;23.80;57.70;;;;;;6315422;28;20048;-77
2021/07/04 05:12:29;;;;;;;0.60;0.60;;;23.80;57.70;;;;;;6315421;28;20023;-75
2021/07/04 05:15:31;;;;;;;0.80;0.60;;;23.80;57.70;;;;;;6298376;28;20489;-76
2021/07/04 05:18:32;;;;;;;0.95;0.60;;;23.80;57.70;;;;;;6314780;28;20036;-74
2021/07/04 05:21:33;;;;;;;0.82;0.60;;;23.80;57.70;;;;;;6316601;28;20077;-76
2021/07/04 05:24:34;;;;;;;0.50;0.50;;;23.80;57.70;;;;;;6314306;28;20114;-75
2021/07/04 05:27:35;;;;;;;0.80;0.70;;;23.80;57.70;;;;;;6315080;28;20039;-75
2021/07/04 05:30:35;;;;;;;1.10;0.80;;;23.80;57.70;;;;;;6314990;28;20427;-75
2021/07/04 05:33:36;;;;;;;0.90;0.82;;;23.80;57.70;;;;;;6314492;28;20055;-76
2021/07/04 05:36:36;;;;;;;0.63;0.63;;;23.80;57.70;;;;;;6314085;28;20469;-77
2021/07/04 05:39:37;;;;;;;0.85;0.73;;;23.80;57.70;;;;;;6315945;28;20439;-74
2021/07/04 05:42:38;;;;;;;0.93;0.60;;;23.80;57.70;;;;;;6315726;28;20062;-75
2021/07/04 05:45:38;;;;;;;0.75;0.73;;;23.80;57.70;;;;;;6315909;28;20035;-75
2021/07/04 05:48:41;;;;;;;0.60;0.60;;;23.80;57.70;;;;;;6315560;28;20397;-74
2021/07/04 05:51:42;;;;;;;0.73;0.70;;;23.80;57.70;;;;;;6314250;28;20032;-74
2021/07/04 05:54:42;;;;;;;0.75;0.65;;;23.80;57.70;;;;;;6315260;28;20527;-75
2021/07/04 05:57:43;;;;;;;0.60;0.60;;;23.80;57.70;;;;;;6314533;28;20032;-77
2021/07/04 06:00:44;;;;;;;0.55;0.50;;;23.80;57.70;;;;;;6315081;28;20042;-76
2021/07/04 06:03:44;;;;;;;0.70;0.60;;;23.80;57.70;;;;;;6313988;28;20031;-75
2021/07/04 06:06:45;;;;;;;0.70;0.70;;;23.80;57.70;;;;;;6313521;28;20031;-75
2021/07/04 06:09:46;;;;;;;0.65;0.65;;;23.80;57.70;;;;;;6314867;28;20023;-76
2021/07/04 06:12:47;;;;;;;0.60;0.60;;;23.80;57.70;;;;;;6313014;28;20505;-75
2021/07/04 06:15:47;;;;;;;0.60;0.60;;;23.80;57.70;;;;;;6313269;28;20024;-76
2021/07/04 06:18:48;;;;;;;0.70;0.70;;;23.80;57.80;;;;;;6315004;28;20034;-74
2021/07/04 06:21:49;;;;;;;1.05;0.85;;;23.80;57.70;;;;;;6314936;28;20028;-73
2021/07/04 06:24:49;;;;;;;0.60;0.60;;;23.80;57.70;;;;;;6314460;28;20024;-76
2021/07/04 06:27:50;;;;;;;0.60;0.60;;;23.80;57.70;;;;;;6314526;28;20097;-76
2021/07/04 06:30:51;;;;;;;0.75;0.73;;;23.80;57.70;;;;;;6313237;28;20020;-75
2021/07/04 06:33:56;;;;;;;0.73;0.73;;;23.80;57.70;;;;;;6313068;28;20073;-75
2021/07/04 06:36:57;;;;;;;0.90;0.80;;;23.80;57.70;;;;;;6313663;28;20020;-76
2021/07/04 06:39:58;;;;;;;0.85;0.70;;;23.80;57.70;;;;;;6312880;28;20388;-75
2021/07/04 06:42:58;;;;;;;0.50;0.50;;;23.80;57.80;;;;;;6314157;28;20107;-76
2021/07/04 06:45:59;;;;;;;0.70;0.60;;;23.80;57.70;;;;;;6312858;28;20031;-77
2021/07/04 06:48:59;;;;;;;0.60;0.60;;;23.80;57.70;;;;;;6312820;28;20027;-76
2021/07/04 06:52:00;;;;;;;1.13;1.00;;;23.80;57.70;;;;;;6314566;28;20111;-73
2021/07/04 06:55:00;;;;;;;0.50;0.50;;;23.80;57.70;;;;;;6312233;28;20054;-76
2021/07/04 06:58:01;;;;;;;1.08;0.80;;;23.80;57.70;;;;;;6312591;28;20085;-76
2021/07/04 07:01:03;;;;;;;0.65;0.65;;;23.80;57.70;;;;;;6312599;28;20510;-76
2021/07/04 07:04:03;;;;;;;0.50;0.50;;;23.80;57.70;;;;;;6314645;28;20435;-74
2021/07/04 07:07:04;;;;;;;0.70;0.70;;;23.80;57.80;;;;;;6319041;28;20024;-75
2021/07/04 07:10:06;;;;;;;0.70;0.60;;;23.80;57.70;;;;;;6317512;28;20489;-74
2021/07/04 07:13:07;;;;;;;0.70;0.70;;;23.80;57.70;;;;;;6317187;28;20112;-76
2021/07/04 07:16:08;;;;;;;0.52;0.52;;;23.80;57.70;;;;;;6317528;28;20508;-76
2021/07/04 07:19:09;;;;;;;0.80;0.63;;;23.80;57.70;;;;;;6318752;28;20071;-76
2021/07/04 07:22:10;;;;;;;0.60;0.60;;;23.80;57.70;;;;;;6317423;28;20533;-74
2021/07/04 07:25:11;;;;;;;0.50;0.50;;;23.80;57.70;;;;;;6318262;28;20028;-76
2021/07/04 07:28:11;;;;;;;0.60;0.60;;;23.80;57.70;;;;;;6317276;28;20051;-75
2021/07/04 07:31:12;;;;;;;0.68;0.68;;;23.80;57.70;;;;;;6317960;28;20228;-76
2021/07/04 07:34:13;;;;;;;0.40;0.40;;;23.80;57.70;;;;;;6317496;28;20024;-76
2021/07/04 07:37:14;;;;;;;0.50;0.50;;;23.80;57.70;;;;;;6318278;28;20024;-75
2021/07/04 07:40:15;;;;;;;0.80;0.73;;;23.80;57.80;;;;;;6316107;28;20024;-75
2021/07/04 07:43:16;;;;;;;0.60;0.60;;;23.80;57.70;;;;;;6315834;28;20380;-76
2021/07/04 07:46:17;;;;;;;0.70;0.70;;;23.80;57.70;;;;;;6317039;28;20115;-75
2021/07/04 07:49:17;;;;;;;0.50;0.50;;;23.80;57.70;;;;;;6316395;28;20020;-75
2021/07/04 07:52:18;;;;;;;0.50;0.50;;;23.80;57.70;;;;;;6318421;28;20035;-77
2021/07/04 07:55:19;;;;;;;0.50;0.50;;;23.80;57.70;;;;;;6315828;28;20040;-76
2021/07/04 07:58:20;;;;;;;0.65;0.63;;;23.80;57.70;;;;;;6317659;28;20028;-74
2021/07/04 08:01:21;;;;;;;0.60;0.60;;;23.80;57.70;;;;;;6316210;28;20107;-75
2021/07/04 08:04:21;;;;;;;0.70;0.70;;;23.80;57.70;;;;;;6315758;28;20046;-76
2021/07/04 08:07:22;;;;;;;1.02;0.90;;;23.80;57.70;;;;;;6316124;28;20056;-76
2021/07/04 08:10:22;;;;;;;0.60;0.50;;;23.80;57.70;;;;;;6316223;28;20377;-73
2021/07/04 08:13:23;;;;;;;0.70;0.70;;;23.80;57.70;;;;;;6316685;28;20032;-74
2021/07/04 08:16:23;;;;;;;0.50;0.50;;;23.80;57.70;;;;;;6317559;28;20209;-76
2021/07/04 08:19:24;;;;;;;0.60;0.60;;;23.80;57.70;;;;;;6316229;28;20023;-76
2021/07/04 08:22:25;;;;;;;0.60;0.60;;;23.80;57.70;;;;;;6317117;28;20020;-77
2021/07/04 08:25:25;;;;;;;0.60;0.60;;;23.80;57.70;;;;;;6315648;28;20361;-76
2021/07/04 08:28:26;;;;;;;0.57;0.57;;;23.80;57.70;;;;;;6315577;28;20028;-75
2021/07/04 08:31:28;;;;;;;0.82;0.60;;;23.80;57.70;;;;;;6315614;28;20107;-76
2021/07/04 08:34:28;;;;;;;0.60;0.50;;;23.80;58.40;;;;;;6316639;28;20415;-74
2021/07/04 08:37:29;;;;;;;0.63;0.60;;;23.80;57.80;;;;;;6315552;28;20035;-75
2021/07/04 08:40:30;;;;;;;0.52;0.40;;;23.80;57.70;;;;;;6316190;28;20024;-76
2021/07/04 08:43:35;;;;;;;0.60;0.60;;;23.80;57.70;;;;;;6315291;28;20393;-72
2021/07/04 08:46:41;;;;;;;0.63;0.63;;;23.80;57.70;;;;;;6315432;28;20032;-75
2021/07/04 08:49:41;;;;;;;0.63;0.60;;;23.80;57.70;;;;;;6316703;28;20053;-74
2021/07/04 08:52:42;;;;;;;0.57;0.57;;;23.80;57.70;;;;;;6314850;28;20089;-75
2021/07/04 08:55:44;;;;;;;0.50;0.50;;;23.80;57.70;;;;;;6315879;28;20036;-76
2021/07/04 08:58:45;;;;;;;0.50;0.50;;;23.80;57.70;;;;;;6314979;28;20028;-76
2021/07/04 09:01:47;;;;;;;0.60;0.60;;;23.80;57.70;;;;;;6314983;28;20031;-76
2021/07/04 09:05:08;;;;;;;0.80;0.70;;;23.80;57.70;;;;;;6315778;28;20028;-71
2021/07/04 09:08:21;;;;;;;0.40;0.40;;;23.80;57.70;;;;;;6315242;28;20590;-72
2021/07/04 09:11:21;;;;;;;0.43;0.43;;;23.80;57.70;;;;;;6314747;28;20027;-71
2021/07/04 09:14:29;;;;;;;0.60;0.50;;;23.80;57.80;;;;;;6316406;28;20020;-71
2021/07/04 09:17:34;;;;;;;0.35;0.35;;;23.80;57.70;;;;;;6316306;28;20581;-71
2021/07/04 09:20:37;;;;;;;;;;;23.80;57.70;;;;;;6325100;28;20030;-71
2021/07/04 09:23:39;;;;;;;0.43;0.43;;;23.80;57.70;;;;;;6339625;28;19919;-71
2021/07/04 09:26:42;;;;;;;0.60;0.55;;;23.80;57.80;;;;;;6339730;28;20468;-71
2021/07/04 09:29:48;;;;;;;0.60;0.50;;;23.80;57.70;;;;;;6339564;28;20035;-71
2021/07/04 09:32:49;;;;;;;0.52;0.52;;;23.80;57.70;;;;;;6314459;28;20493;-71
2021/07/04 09:35:59;;;;;;;0.50;0.50;;;23.80;57.70;;;;;;6324160;28;20031;-71
2021/07/04 09:38:59;;;;;;;1.15;0.60;;;23.80;57.90;;;;;;6340968;28;20098;-71
2021/07/04 09:42:05;;;;;;;0.60;0.55;;;23.80;57.70;;;;;;6322066;28;20479;-71
2021/07/04 09:45:06;;;;;;;0.80;0.80;;;23.80;57.70;;;;;;6313859;28;20745;-71
2021/07/04 09:48:08;;;;;;;0.82;0.60;;;23.80;57.70;;;;;;6309295;28;20028;-70
2021/07/04 09:51:16;;;;;;;0.70;0.60;;;23.80;57.70;;;;;;6315212;28;20619;-71
2021/07/04 09:54:17;;;;;;;0.90;0.60;;;23.80;57.70;;;;;;6314110;28;20054;-72
2021/07/04 09:57:17;;;;;;;0.57;0.50;;;23.80;57.70;;;;;;6315008;28;20032;-72
2021/07/04 10:00:19;;;;;;;0.88;0.50;;;23.80;57.70;;;;;;6312145;28;20067;-71
2021/07/04 10:03:22;;;;;;;1.67;0.70;;;23.80;57.70;;;;;;6312790;28;20020;-72
2021/07/04 10:06:23;;;;;;;0.85;0.65;;;23.80;57.70;;;;;;6314952;28;20440;-72
2021/07/04 10:09:25;;;;;;;3.35;0.93;;;23.80;57.70;;;;;;6313402;28;20020;-72
2021/07/04 10:12:26;;;;;;;2.58;1.15;;;23.80;57.60;;;;;;6312032;28;20031;-72
2021/07/04 10:15:26;;;;;;;5.00;1.50;;;23.80;57.60;;;;;;6312755;28;20025;-72
2021/07/04 10:18:27;;;;;;;8.18;2.15;;;23.80;57.60;;;;;;6312776;28;20028;-72
2021/07/04 10:21:29;;;;;;;6.57;2.05;;;23.80;57.60;;;;;;6321484;28;20066;-71
2021/07/04 10:24:31;;;;;;;4.70;1.45;;;23.80;57.60;;;;;;6317506;28;20652;-72
2021/07/04 10:27:38;;;;;;;4.00;1.35;;;23.80;57.60;;;;;;6313060;28;20397;-73
2021/07/04 10:30:40;;;;;;;5.40;1.60;;;23.80;57.60;;;;;;6313820;28;20020;-71
2021/07/04 10:33:41;;;;;;;4.25;1.33;;;23.80;57.60;;;;;;6312462;28;20032;-72
2021/07/04 10:36:59;;;;;;;3.70;1.40;;;23.80;57.60;;;;;;6311712;28;20024;-72
2021/07/04 10:40:14;;;;;;;1.70;1.05;;;23.80;57.60;;;;;;6312227;28;20055;-72
2021/07/04 10:43:52;;;;;;;2.33;1.15;;;23.80;57.60;;;;;;6313362;28;20052;-73
2021/07/04 10:46:56;;;;;;;3.42;1.33;;;23.80;57.60;;;;;;6312414;28;20031;-72
2021/07/04 10:50:12;;;;;;;5.60;1.75;;;23.80;57.60;;;;;;6311333;28;20024;-72
2021/07/04 10:53:41;;;;;;;2.75;1.30;;;23.80;57.50;;;;;;6312878;28;20551;-71
2021/07/04 10:56:43;;;;;;;1.77;1.10;;;23.80;57.50;;;;;;6319347;28;20028;-72
2021/07/04 11:00:12;;;;;;;2.80;1.25;;;23.80;57.50;;;;;;6323399;28;20039;-71
2021/07/04 11:03:30;;;;;;;3.38;1.38;;;23.80;57.60;;;;;;6312396;28;20438;-73
2021/07/04 11:06:57;;;;;;;3.47;1.45;;;23.80;57.50;;;;;;6288503;28;20082;-72
2021/07/04 11:10:00;;;;;;;3.22;1.75;;;23.80;57.50;;;;;;6299383;28;20481;-71
2021/07/04 11:13:07;;;;;;;2.22;1.15;;;23.80;57.50;;;;;;6312718;28;20063;-70
2021/07/04 11:16:17;;;;;;;2.65;1.30;;;23.90;57.80;;;;;;6301793;28;20024;-71
2021/07/04 11:19:18;;;;;;;1.88;1.13;;;23.90;57.70;;;;;;6310708;28;20098;-72
2021/07/04 11:22:52;;;;;;;3.28;1.20;;;23.90;57.60;;;;;;6312212;28;20445;-71
2021/07/04 11:25:59;;;;;;;3.00;1.40;;;23.90;57.70;;;;;;6301148;28;20035;-71
2021/07/04 11:29:10;;;;;;;3.95;1.42;;;23.80;57.60;;;;;;6312368;28;20020;-72
2021/07/04 11:32:31;;;;;;;7.30;1.40;;;23.80;57.70;;;;;;6310724;28;20035;-72
2021/07/04 11:35:54;;;;;;;7.90;1.00;;;23.90;58.80;;;;;;6310512;28;20110;-74
2021/07/04 11:38:56;;;;;;;3.10;1.08;;;23.90;56.50;;;;;;6309147;28;20024;-73
2021/07/04 11:41:58;;;;;;;5.30;1.20;;;24.00;55.30;;;;;;6310272;28;20128;-72
2021/07/04 11:44:58;;;;;;;2.95;1.15;;;24.00;54.60;;;;;;6310341;28;20196;-71
2021/07/04 11:47:59;;;;;;;2.47;1.00;;;24.10;54.00;;;;;;6310119;28;20045;-70
2021/07/04 11:51:00;;;;;;;1.70;1.10;;;24.10;53.50;;;;;;6311865;28;20451;-70
2021/07/04 11:54:04;;;;;;;2.13;1.02;;;24.20;53.30;;;;;;6313797;28;20071;-72
2021/07/04 12:00:32;;;;;;;1.30;0.98;;;24.20;52.70;;;;;;6315056;28;20532;-72
2021/07/04 12:03:33;;;;;;;1.30;0.90;;;24.30;52.70;;;;;;6316550;28;20459;-71
2021/07/04 12:06:33;;;;;;;2.08;1.15;;;24.30;52.50;;;;;;6335318;27;20039;-71
2021/07/04 12:09:38;;;;;;;1.90;1.08;;;24.40;52.40;;;;;;6314549;28;20020;-71
2021/07/04 12:12:39;;;;;;;2.50;1.08;;;24.40;52.30;;;;;;6311134;28;20713;-72
2021/07/04 12:15:40;;;;;;;1.60;1.13;;;24.40;52.10;;;;;;6312634;28;20032;-70
2021/07/04 12:18:41;;;;;;;1.58;1.02;;;24.40;52.10;;;;;;6316074;28;20054;-72
2021/07/04 12:21:41;;;;;;;1.35;1.08;;;24.40;51.90;;;;;;6315181;28;20045;-72
2021/07/04 12:24:43;;;;;;;1.77;0.90;;;24.50;51.90;;;;;;6324834;28;20020;-72
2021/07/04 12:27:50;;;;;;;1.35;0.82;;;24.50;51.70;;;;;;6313335;28;20476;-71
2021/07/04 12:30:52;;;;;;;1.05;0.90;;;24.50;51.70;;;;;;6314800;28;20107;-72
2021/07/04 12:33:53;;;;;;;1.23;0.90;;;24.50;51.60;;;;;;6314701;28;20055;-73
2021/07/04 12:36:54;;;;;;;2.08;1.20;;;24.50;51.20;;;;;;6313292;28;20028;-71
2021/07/04 12:40:14;;;;;;;1.67;1.20;;;24.50;50.90;;;;;;6312487;28;20026;-72
2021/07/04 12:43:17;;;;;;;1.52;1.23;;;24.50;50.90;;;;;;6312357;28;20039;-72
2021/07/04 12:46:23;;;;;;;2.13;1.20;;;24.50;50.90;;;;;;6312750;28;20039;-70
2021/07/04 12:49:24;;;;;;;1.60;1.20;;;24.50;50.90;;;;;;6313258;28;20418;-72
2021/07/04 12:52:24;;;;;;;1.55;1.10;;;24.50;50.90;;;;;;6311938;28;20104;-72
2021/07/04 12:55:48;;;;;;;3.00;1.10;;;24.50;50.90;;;;;;6329896;28;20044;-72
2021/07/04 12:58:56;;;;;;;2.35;0.98;;;24.50;50.70;;;;;;6314211;28;20028;-72
2021/07/04 13:02:00;;;;;;;2.70;1.00;;;24.50;50.80;;;;;;6320205;28;20027;-71
2021/07/04 13:05:01;;;;;;;5.07;1.23;;;24.50;50.90;;;;;;6326883;28;20069;-69
2021/07/04 13:08:11;;;;;;;2.08;1.38;;;24.60;50.80;;;;;;6313241;28;20028;-71
2021/07/04 13:11:18;;;;;;;5.18;1.30;;;24.60;50.60;;;;;;6317127;28;20031;-69
2021/07/04 13:14:19;;;;;;;3.30;1.30;;;24.60;50.70;;;;;;6313389;28;20653;-70
2021/07/04 13:17:29;;;;;;;1.75;1.35;;;24.60;50.60;;;;;;6317660;28;20062;-69
2021/07/04 13:20:31;;;;;;;1.80;1.30;;;24.60;50.50;;;;;;6330985;28;20020;-71
2021/07/04 13:23:32;;;;;;;2.78;1.30;;;24.60;50.40;;;;;;6311847;28;20024;-69
2021/07/04 13:26:33;;;;;;;1.25;1.15;;;24.60;50.60;;;;;;6312115;28;20031;-68
2021/07/04 13:29:40;;;;;;;4.50;1.30;;;24.60;50.50;;;;;;6311120;28;20020;-71
2021/07/04 13:32:59;;;;;;;2.05;1.20;;;24.60;51.10;;;;;;6308883;28;20034;-70
2021/07/04 13:36:12;;;;;;;2.03;1.35;;;24.60;50.40;;;;;;6311809;28;20085;-67
2021/07/04 13:39:13;;;;;;;4.55;1.52;;;24.60;50.40;;;;;;6330625;28;20066;-67
2021/07/04 13:42:13;;;;;;;1.45;1.20;;;24.60;50.40;;;;;;6318589;28;20020;-67
2021/07/04 13:45:59;;;;;;;4.43;1.50;;;24.60;50.40;;;;;;6312974;28;20886;-67
2021/07/04 13:48:59;;;;;;;8.50;1.40;;;24.60;50.40;;;;;;6237621;28;20025;-70
2021/07/04 13:52:00;;;;;;;2.08;1.20;;;24.60;50.20;;;;;;6331842;28;20542;-71
2021/07/04 13:55:01;;;;;;;10.90;1.63;;;24.60;50.30;;;;;;6313715;28;20048;-70
2021/07/04 13:58:05;;;;;;;2.65;1.23;;;24.60;50.30;;;;;;6314215;28;20074;-70
2021/07/04 14:01:06;;;;;;;1.70;1.30;;;24.60;50.20;;;;;;6315057;28;20025;-70
2021/07/04 14:04:06;;;;;;;1.73;1.23;;;24.60;50.20;;;;;;6322802;28;20024;-69
2021/07/04 14:07:10;;;;;;;2.25;1.38;;;24.60;50.20;;;;;;6318107;28;20044;-70
2021/07/04 14:10:12;;;;;;;5.22;1.70;;;24.60;50.20;;;;;;6314383;28;20020;-70
2021/07/04 14:13:13;;;;;;;1.85;1.10;;;24.60;50.10;;;;;;6313485;28;20020;-71
2021/07/04 14:16:13;;;;;;;2.50;1.25;;;24.60;50.10;;;;;;6314855;28;20034;-70
2021/07/04 14:19:14;;;;;;;3.05;1.50;;;24.60;50.00;;;;;;6313490;28;20050;-70
2021/07/04 14:22:14;;;;;;;3.20;1.40;;;24.60;50.20;;;;;;6314556;28;20388;-71
2021/07/04 14:25:19;;;;;;;3.83;1.23;;;24.60;50.20;;;;;;6313589;28;20120;-74
2021/07/04 14:28:20;;;;;;;;;;;24.60;50.00;;;;;;6313990;28;20023;-68
2021/07/04 14:31:20;;;;;;;3.60;1.45;;;24.60;50.00;;;;;;6313480;28;19976;-69
2021/07/04 14:34:21;;;;;;;9.75;1.80;;;24.60;50.10;;;;;;6313898;28;20024;-70
2021/07/04 14:37:22;;;;;;;5.93;1.30;;;24.60;50.10;;;;;;6313150;28;20035;-67
2021/07/04 14:40:25;;;;;;;8.38;1.52;;;24.60;50.70;;;;;;6312524;28;20036;-68
2021/07/04 14:43:25;;;;;;;8.15;1.85;;;24.60;49.90;;;;;;6310738;28;20016;-69
2021/07/04 14:46:26;;;;;;;10.75;1.75;;;24.60;49.90;;;;;;6312234;28;20024;-68
2021/07/04 14:49:31;;;;;;;14.48;2.13;;;24.60;50.00;;;;;;6310924;28;20127;-69
2021/07/04 14:52:33;;;;;;;21.35;1.90;;;24.60;50.00;;;;;;6312695;28;20032;-69
2021/07/04 14:55:39;;;;;;;26.50;2.78;;;24.60;49.90;;;;;;6310500;28;20154;-68
2021/07/04 14:58:40;;;;;;;23.60;2.70;;;24.70;50.10;;;;;;6312027;28;20019;-68
2021/07/04 15:01:42;;;;;;;15.77;2.40;;;24.70;50.10;;;;;;6312466;28;20022;-68
2021/07/04 15:04:44;;;;;;;16.85;2.58;;;24.70;50.10;;;;;;6310169;28;20013;-68
2021/07/04 15:07:46;;;;;;;17.30;2.20;;;24.70;50.10;;;;;;6310485;28;20031;-67
2021/07/04 15:10:46;;;;;;;19.90;3.35;;;24.70;50.10;;;;;;6307003;28;20525;-68
2021/07/04 15:13:47;;;;;;;17.75;2.90;;;24.70;50.00;;;;;;6311526;28;20043;-67
2021/07/04 15:16:47;;;;;;;16.80;2.33;;;24.70;50.20;;;;;;6312239;28;20150;-67
2021/07/04 15:19:48;;;;;;;15.95;2.60;;;24.70;50.20;;;;;;6311980;28;20036;-68
2021/07/04 15:22:49;;;;;;;8.77;2.47;;;24.70;50.30;;;;;;6311031;28;20024;-67
2021/07/04 15:25:50;;;;;;;13.63;2.13;;;24.70;50.10;;;;;;6313558;28;20028;-67
2021/07/04 15:28:52;;;;;;;21.10;2.45;;;24.70;50.10;;;;;;6316648;28;20035;-67
2021/07/04 15:31:53;;;;;;;11.95;2.30;;;24.60;50.00;;;;;;6315614;28;20032;-67
2021/07/04 15:34:53;;;;;;;10.85;2.05;;;24.70;49.90;;;;;;6314311;28;20032;-67
2021/07/04 15:37:54;;;;;;;12.68;2.47;;;24.70;50.00;;;;;;6315697;28;20039;-67
2021/07/04 15:40:55;;;;;;;6.32;1.80;;;24.70;50.00;;;;;;6316662;28;20016;-68
2021/07/04 15:43:57;;;;;;;10.38;2.20;;;24.70;49.90;;;;;;6326798;28;20035;-67
2021/07/04 15:46:57;;;;;;;13.77;2.40;;;24.70;49.80;;;;;;6315384;28;20020;-67
2021/07/04 15:49:58;;;;;;;11.02;2.42;;;24.70;50.00;;;;;;6315872;28;20404;-68
2021/07/04 15:53:04;;;;;;;9.10;1.80;;;24.70;49.90;;;;;;6315283;28;20040;-68
2021/07/04 15:56:05;;;;;;;13.75;2.55;;;24.70;50.00;;;;;;6314045;28;20028;-67